Time,TemperatureF,DewpointF,PressureIn,WindDirection,WindDirectionDegrees,WindSpeedMPH,WindSpeedGustMPH,Humidity,HourlyPrecipIn,Conditions,Clouds,dailyrainin,SoftwareType,DateUTC
2013-05-28 00:01:00,68.6,60.4,29.70,SSE,155,0.0,0.0,75,0.00,OVC,OVC,0.00,WeatherDisplay:10.37,2013-05-28 05:01:00,
2013-05-28 00:06:00,68.6,60.7,29.69,SSE,155,2.3,2.3,76,0.00,OVC,OVC,0.00,WeatherDisplay:10.37,2013-05-28 05:06:00,
2013-05-28 00:11:00,68.5,60.6,29.70,SSE,155,2.3,2.3,76,0.01,RA,RA,0.02,WeatherDisplay:10.37,2013-05-28 05:11:00,
2013-05-28 00:16:00,68.3,60.8,29.70,SSE,155,2.0,2.0,77,0.03,RA,RA,0.03,WeatherDisplay:10.37,2013-05-28 05:16:00,
2013-05-28 00:22:00,67.7,60.6,29.70,SSE,151,3.5,3.5,78,0.04,RA,RA,0.04,WeatherDisplay:10.37,2013-05-28 05:22:00,
2013-05-28 00:27:00,67.3,60.6,29.70,SSE,152,2.3,2.3,79,0.04,RA,RA,0.04,WeatherDisplay:10.37,2013-05-28 05:27:00,
2013-05-28 00:32:00,67.2,60.5,29.70,South,177,2.3,2.3,79,0.05,RA,RA,0.05,WeatherDisplay:10.37,2013-05-28 05:32:00,
2013-05-28 00:37:00,67.0,60.6,29.70,South,171,4.0,4.0,80,0.06,RA,RA,0.06,WeatherDisplay:10.37,2013-05-28 05:37:00,
2013-05-28 00:42:00,66.9,60.9,29.71,SSE,152,3.5,3.5,81,0.09,RA,RA,0.09,WeatherDisplay:10.37,2013-05-28 05:42:00,
2013-05-28 00:49:00,66.7,60.7,29.70,SE,128,4.6,4.6,81,0.25,RA,RA,0.25,WeatherDisplay:10.37,2013-05-28 05:49:00,
2013-05-28 00:54:00,65.7,59.0,29.68,SW,223,2.3,2.3,79,0.36,RA,RA,0.36,WeatherDisplay:10.37,2013-05-28 05:54:00,
2013-05-28 01:00:00,65.1,58.4,29.69,SW,223,1.2,0.0,79,0.38,RA,RA,0.38,WeatherDisplay:10.37,2013-05-28 06:00:00,
2013-05-28 01:05:00,64.8,58.5,29.69,SW,223,0.0,0.0,80,0.39,RA,RA,0.39,WeatherDisplay:10.37,2013-05-28 06:05:00,
2013-05-28 01:10:00,64.7,58.4,29.70,SW,223,0.0,0.0,80,0.39,RA,RA,0.39,WeatherDisplay:10.37,2013-05-28 06:10:00,
2013-05-28 01:15:00,64.7,58.7,29.71,SW,223,2.3,2.3,81,0.36,OVC,OVC,0.39,WeatherDisplay:10.37,2013-05-28 06:15:00,
2013-05-28 01:20:00,64.7,58.7,29.72,SSW,212,1.2,1.2,81,0.36,RA,RA,0.40,WeatherDisplay:10.37,2013-05-28 06:20:00,
2013-05-28 01:25:00,64.9,59.3,29.73,South,171,3.5,3.5,82,0.38,RA,RA,0.42,WeatherDisplay:10.37,2013-05-28 06:25:00,
2013-05-28 01:30:00,65.4,60.1,29.71,South,169,0.0,0.0,83,0.47,RA,RA,0.53,WeatherDisplay:10.37,2013-05-28 06:30:00,
2013-05-28 01:36:00,65.3,60.0,29.70,SSE,149,3.5,3.5,83,0.51,RA,RA,0.57,WeatherDisplay:10.37,2013-05-28 06:36:00,
2013-05-28 01:41:00,65.0,59.4,29.71,SSE,158,4.6,4.6,82,0.53,RA,RA,0.59,WeatherDisplay:10.37,2013-05-28 06:41:00,
2013-05-28 01:46:00,64.9,59.6,29.70,SE,135,4.6,4.6,83,0.38,RA,RA,0.61,WeatherDisplay:10.37,2013-05-28 06:46:00,
2013-05-28 01:51:00,64.7,59.4,29.70,South,174,4.6,4.6,83,0.36,RA,RA,0.68,WeatherDisplay:10.37,2013-05-28 06:51:00,
2013-05-28 01:57:00,64.7,59.4,29.69,SSE,155,0.0,0.0,83,0.33,RA,RA,0.70,WeatherDisplay:10.37,2013-05-28 06:57:00,
2013-05-28 02:02:00,64.7,59.4,29.68,SSE,155,1.2,1.2,83,0.33,RA,RA,0.71,WeatherDisplay:10.37,2013-05-28 07:02:00,
2013-05-28 02:07:00,64.5,59.2,29.67,WSW,246,1.0,1.1,83,0.33,RA,RA,0.72,WeatherDisplay:10.37,2013-05-28 07:07:00,
2013-05-28 02:12:00,64.4,59.1,29.65,WSW,246,0.0,0.0,83,0.34,RA,RA,0.73,WeatherDisplay:10.37,2013-05-28 07:12:00,
2013-05-28 02:17:00,64.3,59.0,29.65,WSW,246,1.2,1.2,83,0.35,RA,RA,0.75,WeatherDisplay:10.37,2013-05-28 07:17:00,
2013-05-28 02:23:00,64.3,59.4,29.64,WSW,246,0.0,0.0,84,0.36,RA,RA,0.77,WeatherDisplay:10.37,2013-05-28 07:23:00,
2013-05-28 02:28:00,64.3,59.4,29.64,WSW,246,0.0,0.0,84,0.31,RA,RA,0.78,WeatherDisplay:10.37,2013-05-28 07:28:00,
2013-05-28 02:33:00,64.4,59.5,29.62,WSW,246,1.2,0.0,84,0.23,RA,RA,0.79,WeatherDisplay:10.37,2013-05-28 07:33:00,
2013-05-28 02:38:00,64.3,59.4,29.61,WSW,246,0.0,0.0,84,0.23,RA,RA,0.81,WeatherDisplay:10.37,2013-05-28 07:38:00,
2013-05-28 02:43:00,64.3,59.4,29.64,WSW,246,0.0,0.0,84,0.23,RA,RA,0.82,WeatherDisplay:10.37,2013-05-28 07:43:00,
2013-05-28 02:49:00,64.4,59.5,29.60,WSW,246,2.3,2.3,84,0.18,RA,RA,0.83,WeatherDisplay:10.37,2013-05-28 07:49:00,
2013-05-28 02:54:00,64.3,59.4,29.58,North,350,2.3,2.3,84,0.14,RA,RA,0.83,WeatherDisplay:10.37,2013-05-28 07:54:00,
2013-05-28 02:59:00,64.2,59.3,29.58,NE,42,1.2,0.0,84,0.13,OVC,OVC,0.83,WeatherDisplay:10.37,2013-05-28 07:59:00,
2013-05-28 03:05:00,64.1,59.2,29.58,NE,42,0.0,0.0,84,0.12,OVC,OVC,0.83,WeatherDisplay:10.37,2013-05-28 08:05:00,
2013-05-28 03:10:00,64.1,59.2,29.59,NE,42,0.0,0.0,84,0.10,OVC,OVC,0.83,WeatherDisplay:10.37,2013-05-28 08:10:00,
2013-05-28 03:15:00,64.0,59.1,29.59,NE,42,0.0,0.0,84,0.08,OVC,OVC,0.83,WeatherDisplay:10.37,2013-05-28 08:15:00,
2013-05-28 03:21:00,63.9,59.0,29.59,NE,42,1.2,0.0,84,0.07,OVC,OVC,0.83,WeatherDisplay:10.37,2013-05-28 08:21:00,
2013-05-28 03:26:00,63.9,59.0,29.59,NE,42,1.2,1.2,84,0.06,OVC,OVC,0.83,WeatherDisplay:10.37,2013-05-28 08:26:00,
2013-05-28 03:31:00,63.8,59.2,29.60,NE,42,0.0,0.0,85,0.05,OVC,OVC,0.83,WeatherDisplay:10.37,2013-05-28 08:31:00,
2013-05-28 03:36:00,63.8,59.2,29.59,NE,42,2.3,2.3,85,0.03,OVC,OVC,0.83,WeatherDisplay:10.37,2013-05-28 08:36:00,
2013-05-28 03:41:00,63.9,59.3,29.60,SSE,163,1.2,0.0,85,0.02,OVC,OVC,0.83,WeatherDisplay:10.37,2013-05-28 08:41:00,
2013-05-28 03:47:00,63.9,59.3,29.60,SSE,163,2.3,2.3,85,0.01,OVC,OVC,0.83,WeatherDisplay:10.37,2013-05-28 08:47:00,
2013-05-28 03:52:00,64.0,59.4,29.60,SSE,166,3.5,3.5,85,0.00,OVC,OVC,0.83,WeatherDisplay:10.37,2013-05-28 08:52:00,
2013-05-28 03:57:00,64.0,59.4,29.61,SSE,166,0.0,0.1,85,0.00,OVC,OVC,0.83,WeatherDisplay:10.37,2013-05-28 08:57:00,
2013-05-28 04:02:00,64.1,59.5,29.61,SSE,163,0.0,0.0,85,0.00,OVC,OVC,0.83,WeatherDisplay:10.37,2013-05-28 09:02:00,
2013-05-28 04:07:00,64.1,59.5,29.63,SSE,163,2.3,2.3,85,0.00,OVC,OVC,0.83,WeatherDisplay:10.37,2013-05-28 09:07:00,
2013-05-28 04:12:00,64.1,59.5,29.64,SSE,163,0.0,0.0,85,0.00,OVC,OVC,0.83,WeatherDisplay:10.37,2013-05-28 09:12:00,
2013-05-28 04:17:00,64.0,59.4,29.64,SSE,163,0.0,0.0,85,0.00,OVC,OVC,0.83,WeatherDisplay:10.37,2013-05-28 09:17:00,
2013-05-28 04:23:00,63.9,59.3,29.65,SW,225,3.5,3.5,85,0.00,OVC,OVC,0.83,WeatherDisplay:10.37,2013-05-28 09:23:00,
2013-05-28 04:28:00,64.0,59.4,29.65,West,263,3.5,3.5,85,0.00,OVC,OVC,0.83,WeatherDisplay:10.37,2013-05-28 09:28:00,
2013-05-28 04:33:00,64.0,59.4,29.65,West,263,2.3,0.0,85,0.00,OVC,OVC,0.83,WeatherDisplay:10.37,2013-05-28 09:33:00,
2013-05-28 04:38:00,64.0,59.4,29.65,West,263,1.2,0.0,85,0.00,OVC,OVC,0.83,WeatherDisplay:10.37,2013-05-28 09:38:00,
2013-05-28 04:43:00,63.9,59.3,29.65,West,263,0.0,0.0,85,0.00,OVC,OVC,0.83,WeatherDisplay:10.37,2013-05-28 09:43:00,
2013-05-28 04:48:00,63.9,59.3,29.65,West,263,0.0,0.0,85,0.00,OVC,OVC,0.83,WeatherDisplay:10.37,2013-05-28 09:48:00,
2013-05-28 04:54:00,63.8,59.2,29.66,West,263,0.0,0.0,85,0.00,OVC,OVC,0.83,WeatherDisplay:10.37,2013-05-28 09:54:00,
2013-05-28 04:59:00,63.8,59.2,29.66,West,263,0.0,0.0,85,0.00,OVC,OVC,0.83,WeatherDisplay:10.37,2013-05-28 09:59:00,
2013-05-28 05:04:00,63.8,59.2,29.66,West,263,0.0,0.0,85,0.00,OVC,OVC,0.83,WeatherDisplay:10.37,2013-05-28 10:04:00,
2013-05-28 05:09:00,63.7,59.1,29.66,West,263,0.0,0.0,85,0.00,OVC,OVC,0.83,WeatherDisplay:10.37,2013-05-28 10:09:00,
2013-05-28 05:15:00,63.6,59.0,29.66,West,263,0.0,0.0,85,0.00,OVC,OVC,0.83,WeatherDisplay:10.37,2013-05-28 10:15:00,
2013-05-28 05:20:00,63.4,58.8,29.66,West,263,0.0,0.0,85,0.00,OVC,OVC,0.83,WeatherDisplay:10.37,2013-05-28 10:20:00,
2013-05-28 05:25:00,63.2,58.6,29.66,West,263,0.0,0.0,85,0.00,OVC,OVC,0.83,WeatherDisplay:10.37,2013-05-28 10:25:00,
2013-05-28 05:31:00,63.0,58.4,29.66,West,263,0.0,0.0,85,0.00,OVC,OVC,0.83,WeatherDisplay:10.37,2013-05-28 10:31:00,
2013-05-28 05:36:00,62.9,58.3,29.66,West,263,0.0,0.0,85,0.00,OVC,OVC,0.83,WeatherDisplay:10.37,2013-05-28 10:36:00,
2013-05-28 05:41:00,62.6,58.0,29.66,West,263,0.0,0.0,85,0.00,OVC,OVC,0.83,WeatherDisplay:10.37,2013-05-28 10:41:00,
2013-05-28 05:46:00,62.4,57.8,29.67,West,263,0.0,0.0,85,0.00,OVC,OVC,0.83,WeatherDisplay:10.37,2013-05-28 10:46:00,
2013-05-28 05:51:00,62.3,57.7,29.67,West,263,0.0,0.0,85,0.00,OVC,OVC,0.83,WeatherDisplay:10.37,2013-05-28 10:51:00,
2013-05-28 05:57:00,62.2,57.6,29.67,West,263,0.0,0.0,85,0.00,OVC,OVC,0.83,WeatherDisplay:10.37,2013-05-28 10:57:00,
2013-05-28 06:02:00,62.1,57.5,29.67,West,263,0.0,0.0,85,0.00,OVC,OVC,0.83,WeatherDisplay:10.37,2013-05-28 11:02:00,
2013-05-28 06:07:00,62.0,57.4,29.67,West,263,0.0,0.0,85,0.00,OVC,OVC,0.83,WeatherDisplay:10.37,2013-05-28 11:07:00,
2013-05-28 06:12:00,62.0,57.4,29.66,West,263,0.0,0.0,85,0.00,OVC,OVC,0.83,WeatherDisplay:10.37,2013-05-28 11:12:00,
2013-05-28 06:17:00,61.9,57.7,29.67,West,263,0.0,0.0,86,0.00,OVC,OVC,0.83,WeatherDisplay:10.37,2013-05-28 11:17:00,
2013-05-28 06:23:00,61.9,57.7,29.67,West,263,0.0,0.0,86,0.00,OVC,OVC,0.83,WeatherDisplay:10.37,2013-05-28 11:23:00,
2013-05-28 06:28:00,61.9,57.7,29.67,West,263,0.0,0.0,86,0.00,OVC,OVC,0.83,WeatherDisplay:10.37,2013-05-28 11:28:00,
2013-05-28 06:33:00,62.0,57.8,29.67,West,263,0.0,0.0,86,0.00,OVC,OVC,0.83,WeatherDisplay:10.37,2013-05-28 11:33:00,
2013-05-28 06:39:00,62.2,58.0,29.67,West,263,0.0,0.0,86,0.00,OVC,OVC,0.83,WeatherDisplay:10.37,2013-05-28 11:39:00,
2013-05-28 06:44:00,62.5,58.3,29.66,West,263,2.3,2.3,86,0.00,OVC,OVC,0.83,WeatherDisplay:10.37,2013-05-28 11:44:00,
2013-05-28 06:49:00,62.8,58.5,29.66,West,263,0.0,0.0,86,0.00,OVC,OVC,0.83,WeatherDisplay:10.37,2013-05-28 11:49:00,
2013-05-28 06:54:00,63.1,58.8,29.66,West,263,1.2,0.0,86,0.00,OVC,OVC,0.83,WeatherDisplay:10.37,2013-05-28 11:54:00,
2013-05-28 06:59:00,63.3,59.0,29.67,West,263,1.2,1.2,86,0.00,OVC,OVC,0.83,WeatherDisplay:10.37,2013-05-28 11:59:00,
2013-05-28 07:04:00,63.5,59.2,29.67,WSW,242,0.0,0.0,86,0.00,OVC,OVC,0.83,WeatherDisplay:10.37,2013-05-28 12:04:00,
2013-05-28 07:09:00,63.8,59.5,29.66,South,178,4.6,4.6,86,0.00,OVC,OVC,0.83,WeatherDisplay:10.37,2013-05-28 12:09:00,
2013-05-28 07:15:00,64.0,59.7,29.66,South,172,4.0,4.0,86,0.00,OVC,OVC,0.83,WeatherDisplay:10.37,2013-05-28 12:15:00,
2013-05-28 07:20:00,64.2,59.9,29.66,SSE,159,4.6,4.6,86,0.00,OVC,OVC,0.83,WeatherDisplay:10.37,2013-05-28 12:20:00,
2013-05-28 07:25:00,64.3,60.0,29.66,South,184,5.8,5.8,86,0.00,OVC,OVC,0.83,WeatherDisplay:10.37,2013-05-28 12:25:00,
2013-05-28 07:30:00,64.5,60.2,29.65,South,174,0.0,0.0,86,0.00,OVC,OVC,0.83,WeatherDisplay:10.37,2013-05-28 12:30:00,
2013-05-28 07:35:00,64.6,60.3,29.65,SSE,167,4.6,4.6,86,0.00,OVC,OVC,0.83,WeatherDisplay:10.37,2013-05-28 12:35:00,
2013-05-28 07:41:00,64.7,60.4,29.65,SSE,153,3.5,3.5,86,0.00,OVC,OVC,0.83,WeatherDisplay:10.37,2013-05-28 12:41:00,
2013-05-28 07:46:00,64.8,60.5,29.65,SSE,151,5.8,5.8,86,0.00,OVC,OVC,0.83,WeatherDisplay:10.37,2013-05-28 12:46:00,
2013-05-28 07:51:00,64.9,60.6,29.65,South,171,4.6,4.6,86,0.00,OVC,OVC,0.83,WeatherDisplay:10.37,2013-05-28 12:51:00,
2013-05-28 07:56:00,65.0,60.7,29.64,SE,140,4.0,4.0,86,0.00,OVC,OVC,0.83,WeatherDisplay:10.37,2013-05-28 12:56:00,
2013-05-28 08:01:00,65.1,60.8,29.64,South,173,10.0,10.0,86,0.00,OVC,OVC,0.83,WeatherDisplay:10.37,2013-05-28 13:01:00,
2013-05-28 08:06:00,65.1,60.8,29.64,SE,140,10.4,10.4,86,0.00,OVC,OVC,0.83,WeatherDisplay:10.37,2013-05-28 13:06:00,
2013-05-28 08:11:00,64.9,60.6,29.64,SSE,147,6.9,6.9,86,0.00,OVC,OVC,0.83,WeatherDisplay:10.37,2013-05-28 13:11:00,
2013-05-28 08:17:00,64.9,60.6,29.64,South,178,6.9,6.9,86,0.00,OVC,OVC,0.83,WeatherDisplay:10.37,2013-05-28 13:17:00,
2013-05-28 08:22:00,65.0,60.7,29.64,SSE,153,4.0,4.0,86,0.00,OVC,OVC,0.83,WeatherDisplay:10.37,2013-05-28 13:22:00,
2013-05-28 08:27:00,65.3,61.0,29.65,SSE,150,5.8,5.8,86,0.00,OVC,OVC,0.83,WeatherDisplay:10.37,2013-05-28 13:27:00,
2013-05-28 08:32:00,65.4,61.1,29.65,SSE,154,6.0,6.0,86,0.00,OVC,OVC,0.83,WeatherDisplay:10.37,2013-05-28 13:32:00,
2013-05-28 08:38:00,65.8,61.5,29.65,SE,132,3.5,3.5,86,0.00,OVC,OVC,0.83,WeatherDisplay:10.37,2013-05-28 13:38:00,
2013-05-28 08:43:00,66.0,61.7,29.66,SE,143,3.5,3.5,86,0.00,OVC,OVC,0.83,WeatherDisplay:10.37,2013-05-28 13:43:00,
2013-05-28 08:48:00,66.1,61.8,29.66,SSW,192,9.2,9.2,86,0.00,OVC,OVC,0.83,WeatherDisplay:10.37,2013-05-28 13:48:00,
2013-05-28 08:53:00,66.2,61.9,29.66,SSE,158,2.3,0.0,86,0.00,OVC,OVC,0.83,WeatherDisplay:10.37,2013-05-28 13:53:00,
2013-05-28 08:59:00,66.5,62.2,29.66,SSE,157,2.3,2.3,86,0.00,OVC,OVC,0.83,WeatherDisplay:10.37,2013-05-28 13:59:00,
2013-05-28 09:04:00,66.9,62.6,29.66,South,173,4.6,4.6,86,0.00,OVC,OVC,0.83,WeatherDisplay:10.37,2013-05-28 14:04:00,
2013-05-28 09:09:00,67.4,63.1,29.66,NE,46,3.5,3.5,86,0.00,OVC,OVC,0.83,WeatherDisplay:10.37,2013-05-28 14:09:00,
2013-05-28 09:14:00,67.7,63.4,29.66,SSE,154,3.5,3.5,86,0.00,OVC,OVC,0.83,WeatherDisplay:10.37,2013-05-28 14:14:00,
2013-05-28 09:19:00,68.3,63.9,29.66,SE,145,4.6,4.6,86,0.00,OVC,OVC,0.83,WeatherDisplay:10.37,2013-05-28 14:19:00,
2013-05-28 09:24:00,68.5,63.8,29.66,SE,146,9.2,9.2,85,0.00,OVC,OVC,0.83,WeatherDisplay:10.37,2013-05-28 14:24:00,
2013-05-28 09:30:00,69.1,64.1,29.65,South,180,8.1,8.1,84,0.00,OVC,OVC,0.83,WeatherDisplay:10.37,2013-05-28 14:30:00,
2013-05-28 09:35:00,69.9,63.8,29.65,South,177,3.5,0.0,81,0.00,OVC,OVC,0.83,WeatherDisplay:10.37,2013-05-28 14:35:00,
2013-05-28 09:40:00,70.8,64.0,29.66,SSE,162,3.5,3.5,79,0.00,OVC,OVC,0.83,WeatherDisplay:10.37,2013-05-28 14:40:00,
2013-05-28 09:45:00,71.9,63.5,29.66,SSE,152,3.5,3.5,75,0.00,OVC,OVC,0.83,WeatherDisplay:10.37,2013-05-28 14:45:00,
2013-05-28 09:50:00,72.8,63.6,29.65,SSE,152,2.3,2.3,73,0.00,OVC,OVC,0.83,WeatherDisplay:10.37,2013-05-28 14:50:00,
2013-05-28 09:55:00,73.7,63.3,29.65,SSE,162,3.5,3.5,70,0.00,OVC,OVC,0.83,WeatherDisplay:10.37,2013-05-28 14:55:00,
2013-05-28 10:00:00,74.3,62.6,29.66,SSW,209,3.0,3.0,67,0.00,OVC,OVC,0.83,WeatherDisplay:10.37,2013-05-28 15:00:00,
2013-05-28 10:06:00,74.0,61.9,29.66,WNW,285,4.6,4.6,66,0.00,OVC,OVC,0.83,WeatherDisplay:10.37,2013-05-28 15:06:00,
2013-05-28 10:11:00,73.7,62.1,29.65,SSE,152,3.5,3.5,67,0.00,OVC,OVC,0.83,WeatherDisplay:10.37,2013-05-28 15:11:00,
2013-05-28 10:16:00,73.4,62.2,29.66,SW,232,3.5,3.5,68,0.00,OVC,OVC,0.83,WeatherDisplay:10.37,2013-05-28 15:16:00,
2013-05-28 10:21:00,73.3,62.1,29.66,SSW,196,0.0,0.0,68,0.00,OVC,OVC,0.83,WeatherDisplay:10.37,2013-05-28 15:21:00,
2013-05-28 10:26:00,73.3,62.1,29.65,SSW,196,1.2,1.2,68,0.00,OVC,OVC,0.83,WeatherDisplay:10.37,2013-05-28 15:26:00,
2013-05-28 10:31:00,73.4,62.2,29.65,South,176,3.5,3.5,68,0.00,OVC,OVC,0.83,WeatherDisplay:10.37,2013-05-28 15:31:00,
2013-05-28 10:36:00,73.5,61.9,29.65,SSW,203,3.5,0.0,67,0.00,OVC,OVC,0.83,WeatherDisplay:10.37,2013-05-28 15:36:00,
2013-05-28 10:42:00,73.9,62.2,29.65,South,188,6.9,6.9,67,0.00,OVC,OVC,0.83,WeatherDisplay:10.37,2013-05-28 15:42:00,
2013-05-28 10:47:00,74.4,62.7,29.66,South,188,0.0,0.0,67,0.00,OVC,OVC,0.83,WeatherDisplay:10.37,2013-05-28 15:47:00,
2013-05-28 10:52:00,74.4,61.9,29.65,South,188,3.5,3.5,65,0.00,OVC,OVC,0.83,WeatherDisplay:10.37,2013-05-28 15:52:00,
2013-05-28 10:57:00,74.2,62.1,29.66,West,278,0.0,0.0,66,0.00,OVC,OVC,0.83,WeatherDisplay:10.37,2013-05-28 15:57:00,
2013-05-28 11:02:00,74.2,62.1,29.66,SSE,159,3.5,3.5,66,0.00,OVC,OVC,0.83,WeatherDisplay:10.37,2013-05-28 16:02:00,
2013-05-28 11:08:00,74.3,62.2,29.66,SSE,153,2.0,2.0,66,0.00,OVC,OVC,0.83,WeatherDisplay:10.37,2013-05-28 16:08:00,
2013-05-28 11:13:00,74.4,62.3,29.65,SSE,155,3.5,3.5,66,0.00,OVC,OVC,0.83,WeatherDisplay:10.37,2013-05-28 16:13:00,
2013-05-28 11:18:00,74.2,62.1,29.65,SW,220,6.9,6.9,66,0.00,OVC,OVC,0.83,WeatherDisplay:10.37,2013-05-28 16:18:00,
2013-05-28 11:23:00,74.1,62.4,29.66,SSW,208,2.0,2.0,67,0.00,OVC,OVC,0.83,WeatherDisplay:10.37,2013-05-28 16:23:00,
2013-05-28 11:29:00,74.1,62.0,29.66,SE,138,5.8,5.8,66,0.00,OVC,OVC,0.83,WeatherDisplay:10.37,2013-05-28 16:29:00,
2013-05-28 11:34:00,74.0,62.3,29.66,SE,138,2.0,2.0,67,0.00,OVC,OVC,0.83,WeatherDisplay:10.37,2013-05-28 16:34:00,
2013-05-28 11:39:00,73.2,62.0,29.66,WSW,250,2.3,0.0,68,0.00,OVC,OVC,0.83,WeatherDisplay:10.37,2013-05-28 16:39:00,
2013-05-28 11:44:00,73.0,62.2,29.67,WSW,242,3.5,3.5,69,0.00,OVC,OVC,0.83,WeatherDisplay:10.37,2013-05-28 16:44:00,
2013-05-28 11:49:00,72.9,62.1,29.67,West,271,3.5,3.5,69,0.00,OVC,OVC,0.83,WeatherDisplay:10.37,2013-05-28 16:49:00,
2013-05-28 11:55:00,72.9,62.5,29.67,West,271,1.0,0.0,70,0.00,OVC,OVC,0.83,WeatherDisplay:10.37,2013-05-28 16:55:00,
2013-05-28 12:00:00,73.1,62.7,29.67,West,271,0.0,1.2,70,0.00,OVC,OVC,0.83,WeatherDisplay:10.37,2013-05-28 17:00:00,
2013-05-28 12:05:00,74.2,63.0,29.67,SSW,196,4.6,4.6,68,0.00,OVC,OVC,0.83,WeatherDisplay:10.37,2013-05-28 17:05:00,
2013-05-28 12:11:00,75.7,63.1,29.67,West,260,3.5,3.5,65,0.00,OVC,OVC,0.83,WeatherDisplay:10.37,2013-05-28 17:11:00,
2013-05-28 12:16:00,75.8,62.8,29.67,WNW,291,5.0,5.0,64,0.00,OVC,OVC,0.83,WeatherDisplay:10.37,2013-05-28 17:16:00,
2013-05-28 12:21:00,75.7,63.1,29.67,West,281,1.0,1.0,65,0.00,OVC,OVC,0.83,WeatherDisplay:10.37,2013-05-28 17:21:00,
2013-05-28 12:26:00,75.7,62.7,29.67,West,280,2.3,2.3,64,0.00,OVC,OVC,0.83,WeatherDisplay:10.37,2013-05-28 17:26:00,
2013-05-28 12:31:00,75.5,62.9,29.68,West,263,2.3,2.3,65,0.00,OVC,OVC,0.83,WeatherDisplay:10.37,2013-05-28 17:31:00,
2013-05-28 12:36:00,75.8,62.8,29.68,WSW,258,4.0,4.0,64,0.00,OVC,OVC,0.83,WeatherDisplay:10.37,2013-05-28 17:36:00,
2013-05-28 12:41:00,75.9,62.4,29.68,West,279,3.5,3.5,63,0.00,OVC,OVC,0.83,WeatherDisplay:10.37,2013-05-28 17:41:00,
2013-05-28 12:47:00,76.2,62.2,29.68,West,277,3.5,3.5,62,0.00,OVC,OVC,0.83,WeatherDisplay:10.37,2013-05-28 17:47:00,
2013-05-28 12:52:00,76.6,63.1,29.68,WNW,290,4.6,4.6,63,0.00,OVC,OVC,0.83,WeatherDisplay:10.37,2013-05-28 17:52:00,
2013-05-28 12:57:00,77.0,62.5,29.68,West,267,6.9,6.9,61,0.00,OVC,OVC,0.83,WeatherDisplay:10.37,2013-05-28 17:57:00,
2013-05-28 13:02:00,76.9,62.9,29.68,WNW,292,3.5,3.5,62,0.00,OVC,OVC,0.83,WeatherDisplay:10.37,2013-05-28 18:02:00,
2013-05-28 13:07:00,76.5,62.0,29.68,West,262,4.6,4.6,61,0.00,OVC,OVC,0.83,WeatherDisplay:10.37,2013-05-28 18:07:00,
2013-05-28 13:12:00,77.1,63.1,29.68,WNW,288,3.5,3.5,62,0.00,OVC,OVC,0.83,WeatherDisplay:10.37,2013-05-28 18:12:00,
2013-05-28 13:17:00,77.8,62.3,29.68,West,268,6.0,6.0,59,0.00,OVC,OVC,0.83,WeatherDisplay:10.37,2013-05-28 18:17:00,
2013-05-28 13:23:00,77.6,60.7,29.67,West,267,5.8,5.8,56,0.00,OVC,OVC,0.83,WeatherDisplay:10.37,2013-05-28 18:23:00,
2013-05-28 13:28:00,78.1,61.6,29.68,WNW,283,3.5,3.5,57,0.00,OVC,OVC,0.83,WeatherDisplay:10.37,2013-05-28 18:28:00,
2013-05-28 13:33:00,78.1,61.1,29.68,North,360,1.2,0.0,56,0.00,OVC,OVC,0.83,WeatherDisplay:10.37,2013-05-28 18:33:00,
2013-05-28 13:38:00,77.8,59.3,29.68,WNW,303,3.5,3.5,53,0.00,OVC,OVC,0.83,WeatherDisplay:10.37,2013-05-28 18:38:00,
2013-05-28 13:43:00,77.9,59.9,29.68,West,274,3.5,3.5,54,0.00,OVC,OVC,0.83,WeatherDisplay:10.37,2013-05-28 18:43:00,
2013-05-28 13:49:00,78.4,60.4,29.69,West,265,5.0,5.0,54,0.00,OVC,OVC,0.83,WeatherDisplay:10.37,2013-05-28 18:49:00,
2013-05-28 13:54:00,78.8,60.2,29.69,WSW,257,4.6,4.6,53,0.00,OVC,OVC,0.83,WeatherDisplay:10.37,2013-05-28 18:54:00,
2013-05-28 13:59:00,79.5,61.4,29.69,West,281,2.3,2.3,54,0.00,OVC,OVC,0.83,WeatherDisplay:10.37,2013-05-28 18:59:00,
2013-05-28 14:04:00,79.8,59.5,29.69,WSW,246,3.5,3.5,50,0.00,OVC,OVC,0.83,WeatherDisplay:10.37,2013-05-28 19:04:00,
2013-05-28 14:10:00,80.3,60.5,29.69,SSW,210,2.0,2.0,51,0.00,OVC,OVC,0.83,WeatherDisplay:10.37,2013-05-28 19:10:00,
2013-05-28 14:15:00,80.7,59.2,29.69,West,263,3.5,3.5,48,0.00,OVC,OVC,0.83,WeatherDisplay:10.37,2013-05-28 19:15:00,
2013-05-28 14:20:00,80.9,60.5,29.69,West,281,5.8,5.8,50,0.00,OVC,OVC,0.83,WeatherDisplay:10.37,2013-05-28 19:20:00,
2013-05-28 14:25:00,81.5,59.9,29.69,West,260,3.5,3.5,48,0.00,OVC,OVC,0.83,WeatherDisplay:10.37,2013-05-28 19:25:00,
2013-05-28 14:30:00,81.5,60.5,29.69,West,259,2.0,2.0,49,0.00,OVC,OVC,0.83,WeatherDisplay:10.37,2013-05-28 19:30:00,
2013-05-28 14:36:00,80.9,59.9,29.69,West,259,1.2,1.2,49,0.00,OVC,OVC,0.83,WeatherDisplay:10.37,2013-05-28 19:36:00,
2013-05-28 14:41:00,80.8,59.9,29.70,WSW,252,5.0,5.0,49,0.00,OVC,OVC,0.83,WeatherDisplay:10.37,2013-05-28 19:41:00,
2013-05-28 14:46:00,81.1,60.7,29.70,WSW,257,0.0,0.0,50,0.00,OVC,OVC,0.83,WeatherDisplay:10.37,2013-05-28 19:46:00,
2013-05-28 14:51:00,81.5,59.3,29.69,West,261,4.6,4.6,47,0.00,OVC,OVC,0.83,WeatherDisplay:10.37,2013-05-28 19:51:00,
2013-05-28 14:56:00,82.0,60.4,29.69,West,259,2.3,0.0,48,0.00,OVC,OVC,0.83,WeatherDisplay:10.37,2013-05-28 19:56:00,
2013-05-28 15:01:00,82.2,60.0,29.69,West,281,3.5,3.5,47,0.00,OVC,OVC,0.83,WeatherDisplay:10.37,2013-05-28 20:01:00,
2013-05-28 15:07:00,82.1,60.5,29.69,West,270,3.5,3.5,48,0.00,OVC,OVC,0.83,WeatherDisplay:10.37,2013-05-28 20:07:00,
2013-05-28 15:12:00,82.1,61.0,29.68,West,269,2.0,2.0,49,0.00,OVC,OVC,0.83,WeatherDisplay:10.37,2013-05-28 20:12:00,
2013-05-28 15:17:00,81.7,60.1,29.69,West,276,0.0,0.0,48,0.00,OVC,OVC,0.83,WeatherDisplay:10.37,2013-05-28 20:17:00,
2013-05-28 15:22:00,81.6,60.0,29.69,WSW,252,5.8,5.8,48,0.00,OVC,OVC,0.83,WeatherDisplay:10.37,2013-05-28 20:22:00,
2013-05-28 15:27:00,80.5,60.1,29.70,West,271,3.5,3.5,50,0.00,OVC,OVC,0.83,WeatherDisplay:10.37,2013-05-28 20:27:00,
2013-05-28 15:33:00,80.5,60.7,29.71,West,271,1.2,0.0,51,0.00,OVC,OVC,0.83,WeatherDisplay:10.37,2013-05-28 20:33:00,
2013-05-28 15:38:00,80.8,60.4,29.71,South,188,0.0,1.3,50,0.00,OVC,OVC,0.83,WeatherDisplay:10.37,2013-05-28 20:38:00,
2013-05-28 15:43:00,80.5,59.6,29.70,SW,215,6.9,6.9,49,0.00,OVC,OVC,0.83,WeatherDisplay:10.37,2013-05-28 20:43:00,
2013-05-28 15:48:00,79.9,59.6,29.70,WSW,242,3.5,3.5,50,0.00,OVC,OVC,0.83,WeatherDisplay:10.37,2013-05-28 20:48:00,
2013-05-28 15:53:00,79.4,60.2,29.70,WSW,242,1.2,0.0,52,0.00,OVC,OVC,0.83,WeatherDisplay:10.37,2013-05-28 20:53:00,
2013-05-28 15:58:00,79.8,60.1,29.69,South,186,3.5,3.5,51,0.00,OVC,OVC,0.83,WeatherDisplay:10.37,2013-05-28 20:58:00,
2013-05-28 16:04:00,80.2,61.0,29.69,South,186,0.0,0.0,52,0.00,OVC,OVC,0.83,WeatherDisplay:10.37,2013-05-28 21:04:00,
2013-05-28 16:09:00,81.0,61.2,29.69,South,186,3.5,3.5,51,0.00,OVC,OVC,0.83,WeatherDisplay:10.37,2013-05-28 21:09:00,
2013-05-28 16:14:00,82.0,61.5,29.69,WSW,250,0.0,0.0,50,0.00,OVC,OVC,0.83,WeatherDisplay:10.37,2013-05-28 21:14:00,
2013-05-28 16:19:00,83.0,60.7,29.70,WSW,248,0.0,0.0,47,0.00,OVC,OVC,0.83,WeatherDisplay:10.37,2013-05-28 21:19:00,
2013-05-28 16:24:00,83.4,59.8,29.70,SE,146,3.5,3.5,45,0.00,OVC,OVC,0.83,WeatherDisplay:10.37,2013-05-28 21:24:00,
2013-05-28 16:29:00,83.4,59.8,29.70,SE,146,0.0,0.0,45,0.00,OVC,OVC,0.83,WeatherDisplay:10.37,2013-05-28 21:29:00,
2013-05-28 16:35:00,83.3,59.7,29.70,SE,146,1.2,1.2,45,0.00,OVC,OVC,0.83,WeatherDisplay:10.37,2013-05-28 21:35:00,
2013-05-28 16:40:00,83.0,60.7,29.69,SE,146,2.3,2.3,47,0.00,CLR,CLR,0.83,WeatherDisplay:10.37,2013-05-28 21:40:00,
2013-05-28 16:45:00,82.3,60.1,29.69,SE,134,3.5,3.5,47,0.00,OVC,OVC,0.83,WeatherDisplay:10.37,2013-05-28 21:45:00,
2013-05-28 16:50:00,81.3,60.9,29.69,NNE,26,1.2,1.2,50,0.00,OVC,OVC,0.83,WeatherDisplay:10.37,2013-05-28 21:50:00,
2013-05-28 16:55:00,81.1,60.7,29.68,North,5,5.8,5.8,50,0.00,OVC,OVC,0.83,WeatherDisplay:10.37,2013-05-28 21:55:00,
2013-05-28 17:01:00,81.2,61.9,29.67,North,5,0.0,0.0,52,0.00,OVC,OVC,0.83,WeatherDisplay:10.37,2013-05-28 22:01:00,
2013-05-28 17:06:00,82.3,61.8,29.67,NW,311,3.5,3.5,50,0.00,OVC,OVC,0.83,WeatherDisplay:10.37,2013-05-28 22:06:00,
2013-05-28 17:11:00,82.9,61.2,29.67,NW,311,2.3,2.3,48,0.00,OVC,OVC,0.83,WeatherDisplay:10.37,2013-05-28 22:11:00,
2013-05-28 17:16:00,83.6,60.0,29.67,NW,324,4.6,4.6,45,0.00,OVC,OVC,0.83,WeatherDisplay:10.37,2013-05-28 22:16:00,
2013-05-28 17:22:00,83.2,60.3,29.67,NW,312,3.5,0.0,46,0.00,OVC,OVC,0.83,WeatherDisplay:10.37,2013-05-28 22:22:00,
2013-05-28 17:27:00,82.9,60.0,29.67,NW,312,2.3,0.0,46,0.00,OVC,OVC,0.83,WeatherDisplay:10.37,2013-05-28 22:27:00,
2013-05-28 17:32:00,82.9,60.6,29.68,NNW,341,3.5,3.5,47,0.00,OVC,OVC,0.83,WeatherDisplay:10.37,2013-05-28 22:32:00,
2013-05-28 17:37:00,83.1,61.4,29.68,NNW,341,1.2,0.0,48,0.00,OVC,OVC,0.83,WeatherDisplay:10.37,2013-05-28 22:37:00,
2013-05-28 17:42:00,83.1,60.2,29.69,NNW,340,1.2,1.2,46,0.00,OVC,OVC,0.83,WeatherDisplay:10.37,2013-05-28 22:42:00,
2013-05-28 17:48:00,83.0,60.1,29.69,NNW,340,1.2,1.2,46,0.00,OVC,OVC,0.83,WeatherDisplay:10.37,2013-05-28 22:48:00,
2013-05-28 17:53:00,82.8,60.5,29.69,NNW,340,1.2,0.0,47,0.00,OVC,OVC,0.83,WeatherDisplay:10.37,2013-05-28 22:53:00,
2013-05-28 17:58:00,81.9,59.7,29.69,NNW,340,2.3,2.3,47,0.00,OVC,OVC,0.83,WeatherDisplay:10.37,2013-05-28 22:58:00,
2013-05-28 18:03:00,80.7,59.8,29.70,NNW,340,0.0,0.0,49,0.00,OVC,OVC,0.83,WeatherDisplay:10.37,2013-05-28 23:03:00,
2013-05-28 18:08:00,80.3,60.0,29.70,NNW,340,0.0,0.0,50,0.00,OVC,OVC,0.83,WeatherDisplay:10.37,2013-05-28 23:08:00,
2013-05-28 18:13:00,80.1,59.8,29.70,NNW,340,0.0,0.0,50,0.00,OVC,OVC,0.83,WeatherDisplay:10.37,2013-05-28 23:13:00,
2013-05-28 18:19:00,79.8,60.6,29.71,NNW,340,0.0,0.0,52,0.00,OVC,OVC,0.83,WeatherDisplay:10.37,2013-05-28 23:19:00,
2013-05-28 18:24:00,79.6,61.0,29.72,NNW,340,0.0,0.0,53,0.00,OVC,OVC,0.83,WeatherDisplay:10.37,2013-05-28 23:24:00,
2013-05-28 18:29:00,79.4,61.8,29.71,NNW,340,0.0,0.0,55,0.00,OVC,OVC,0.83,WeatherDisplay:10.37,2013-05-28 23:29:00,
2013-05-28 18:34:00,78.9,60.8,29.70,NNW,340,0.0,0.0,54,0.00,OVC,OVC,0.83,WeatherDisplay:10.37,2013-05-28 23:34:00,
2013-05-28 18:39:00,78.5,61.5,29.68,NNW,340,0.0,0.0,56,0.00,OVC,OVC,0.83,WeatherDisplay:10.37,2013-05-28 23:39:00,
2013-05-28 18:44:00,77.8,61.3,29.66,NNW,340,3.5,3.5,57,0.00,OVC,OVC,0.83,WeatherDisplay:10.37,2013-05-28 23:44:00,
2013-05-28 18:50:00,77.0,61.1,29.65,NNW,340,0.0,0.0,58,0.00,OVC,OVC,0.83,WeatherDisplay:10.37,2013-05-28 23:50:00,
2013-05-28 18:55:00,76.6,61.2,29.65,NNW,340,0.0,0.0,59,0.00,OVC,OVC,0.83,WeatherDisplay:10.37,2013-05-28 23:55:00,
2013-05-28 19:00:00,76.5,61.1,29.66,NNW,340,0.0,0.0,59,0.00,OVC,OVC,0.83,WeatherDisplay:10.37,2013-05-29 00:00:00,
2013-05-28 19:05:00,76.3,60.9,29.67,NNW,340,0.0,0.0,59,0.00,OVC,OVC,0.83,WeatherDisplay:10.37,2013-05-29 00:05:00,
2013-05-28 19:10:00,76.1,61.2,29.67,NNW,340,0.0,0.0,60,0.00,OVC,OVC,0.83,WeatherDisplay:10.37,2013-05-29 00:10:00,
2013-05-28 19:15:00,76.0,61.1,29.68,NNW,340,0.0,0.0,60,0.00,OVC,OVC,0.83,WeatherDisplay:10.37,2013-05-29 00:15:00,
2013-05-28 19:20:00,75.8,61.4,29.68,NNW,340,0.0,0.0,61,0.00,OVC,OVC,0.83,WeatherDisplay:10.37,2013-05-29 00:20:00,
2013-05-28 19:26:00,75.7,61.8,29.69,NNW,340,0.0,0.0,62,0.00,OVC,OVC,0.83,WeatherDisplay:10.37,2013-05-29 00:26:00,
2013-05-28 19:31:00,75.4,61.9,29.68,NNW,340,0.0,0.0,63,0.00,OVC,OVC,0.83,WeatherDisplay:10.37,2013-05-29 00:31:00,
2013-05-28 19:36:00,75.2,61.7,29.68,NNW,340,0.0,0.0,63,0.00,OVC,OVC,0.83,WeatherDisplay:10.37,2013-05-29 00:36:00,
2013-05-28 19:41:00,74.9,61.9,29.67,NNW,340,0.0,0.0,64,0.00,OVC,OVC,0.83,WeatherDisplay:10.37,2013-05-29 00:41:00,
2013-05-28 19:46:00,74.8,61.8,29.66,NNW,340,0.0,0.0,64,0.00,OVC,OVC,0.83,WeatherDisplay:10.37,2013-05-29 00:46:00,
2013-05-28 19:51:00,74.6,62.1,29.66,NNW,340,1.2,1.2,65,0.00,OVC,OVC,0.83,WeatherDisplay:10.37,2013-05-29 00:51:00,
2013-05-28 19:57:00,74.5,62.0,29.66,NNW,340,0.0,0.0,65,0.00,OVC,OVC,0.83,WeatherDisplay:10.37,2013-05-29 00:57:00,
2013-05-28 20:02:00,74.3,62.2,29.67,NNW,340,0.0,0.0,66,0.00,OVC,OVC,0.83,WeatherDisplay:10.37,2013-05-29 01:02:00,
2013-05-28 20:07:00,74.1,62.0,29.67,NNW,340,0.0,0.0,66,0.00,OVC,OVC,0.83,WeatherDisplay:10.37,2013-05-29 01:07:00,
2013-05-28 20:12:00,73.9,61.8,29.67,NNW,340,0.0,0.0,66,0.00,OVC,OVC,0.83,WeatherDisplay:10.37,2013-05-29 01:12:00,
2013-05-28 20:17:00,73.9,61.4,29.67,NNW,340,0.0,0.0,65,0.00,OVC,OVC,0.83,WeatherDisplay:10.37,2013-05-29 01:17:00,
2013-05-28 20:22:00,73.9,61.4,29.67,NNW,340,0.0,0.0,65,0.00,OVC,OVC,0.83,WeatherDisplay:10.37,2013-05-29 01:22:00,
2013-05-28 20:28:00,74.0,61.5,29.67,NNW,342,1.0,1.0,65,0.00,OVC,OVC,0.83,WeatherDisplay:10.37,2013-05-29 01:28:00,
2013-05-28 20:33:00,74.0,61.5,29.68,NNW,342,0.0,0.0,65,0.00,OVC,OVC,0.83,WeatherDisplay:10.37,2013-05-29 01:33:00,
2013-05-28 20:38:00,74.0,61.5,29.68,NNW,342,0.0,0.0,65,0.00,OVC,OVC,0.83,WeatherDisplay:10.37,2013-05-29 01:38:00,
2013-05-28 20:43:00,73.9,61.4,29.68,NNW,342,0.0,0.0,65,0.00,OVC,OVC,0.83,WeatherDisplay:10.37,2013-05-29 01:43:00,
2013-05-28 20:48:00,73.9,61.4,29.70,NNW,342,1.2,0.0,65,0.00,OVC,OVC,0.83,WeatherDisplay:10.37,2013-05-29 01:48:00,
2013-05-28 20:53:00,73.8,61.3,29.70,NNW,342,0.0,0.0,65,0.00,OVC,OVC,0.83,WeatherDisplay:10.37,2013-05-29 01:53:00,
2013-05-28 20:58:00,73.6,61.5,29.71,NNW,342,2.3,2.3,66,0.00,OVC,OVC,0.83,WeatherDisplay:10.37,2013-05-29 01:58:00,
2013-05-28 21:04:00,73.4,61.3,29.70,NNW,342,0.0,0.0,66,0.00,OVC,OVC,0.83,WeatherDisplay:10.37,2013-05-29 02:04:00,
2013-05-28 21:09:00,73.3,61.3,29.71,NNW,342,1.2,0.0,66,0.00,OVC,OVC,0.83,WeatherDisplay:10.37,2013-05-29 02:09:00,
2013-05-28 21:14:00,73.0,61.4,29.72,NNW,342,2.3,2.3,67,0.00,OVC,OVC,0.83,WeatherDisplay:10.37,2013-05-29 02:14:00,
2013-05-28 21:19:00,72.8,62.0,29.72,ESE,118,3.5,3.5,69,0.00,OVC,OVC,0.83,WeatherDisplay:10.37,2013-05-29 02:19:00,
2013-05-28 21:24:00,72.7,62.3,29.72,SSE,163,3.5,3.5,70,0.00,OVC,OVC,0.83,WeatherDisplay:10.37,2013-05-29 02:24:00,
2013-05-28 21:29:00,72.6,63.1,29.72,SE,145,3.5,3.5,72,0.00,OVC,OVC,0.83,WeatherDisplay:10.37,2013-05-29 02:29:00,
2013-05-28 21:34:00,72.5,63.4,29.72,SSE,148,4.6,4.6,73,0.00,OVC,OVC,0.83,WeatherDisplay:10.37,2013-05-29 02:34:00,
2013-05-28 21:39:00,72.3,63.5,29.72,SE,140,6.0,6.0,74,0.00,OVC,OVC,0.83,WeatherDisplay:10.37,2013-05-29 02:39:00,
2013-05-28 21:44:00,72.0,63.3,29.72,SE,139,3.5,3.5,74,0.00,OVC,OVC,0.83,WeatherDisplay:10.37,2013-05-29 02:44:00,
2013-05-28 21:49:00,71.8,63.1,29.73,South,175,3.5,3.5,74,0.00,OVC,OVC,0.83,WeatherDisplay:10.37,2013-05-29 02:49:00,
2013-05-28 21:55:00,71.6,62.9,29.73,South,175,0.0,0.0,74,0.00,OVC,OVC,0.83,WeatherDisplay:10.37,2013-05-29 02:55:00,
2013-05-28 22:00:00,71.3,62.2,29.73,SE,138,3.5,3.5,73,0.00,OVC,OVC,0.83,WeatherDisplay:10.37,2013-05-29 03:00:00,
2013-05-28 22:05:00,71.0,61.9,29.73,SE,138,2.3,2.3,73,0.00,OVC,OVC,0.83,WeatherDisplay:10.37,2013-05-29 03:05:00,
2013-05-28 22:10:00,70.7,61.2,29.73,SSE,150,3.5,3.5,72,0.00,OVC,OVC,0.83,WeatherDisplay:10.37,2013-05-29 03:10:00,
2013-05-28 22:15:00,70.5,61.0,29.74,SSE,150,3.5,3.5,72,0.00,OVC,OVC,0.83,WeatherDisplay:10.37,2013-05-29 03:15:00,
2013-05-28 22:20:00,70.2,60.7,29.74,SSE,159,5.8,5.8,72,0.00,OVC,OVC,0.83,WeatherDisplay:10.37,2013-05-29 03:20:00,
2013-05-28 22:25:00,70.0,60.6,29.74,SSE,157,2.3,2.3,72,0.00,OVC,OVC,0.83,WeatherDisplay:10.37,2013-05-29 03:25:00,
2013-05-28 22:30:00,69.8,60.0,29.74,SSE,157,2.3,2.3,71,0.00,OVC,OVC,0.83,WeatherDisplay:10.37,2013-05-29 03:30:00,
2013-05-28 22:36:00,69.5,59.7,29.74,South,179,7.0,7.0,71,0.00,OVC,OVC,0.83,WeatherDisplay:10.37,2013-05-29 03:36:00,
2013-05-28 22:41:00,69.3,59.5,29.74,SSE,157,4.6,4.6,71,0.00,OVC,OVC,0.83,WeatherDisplay:10.37,2013-05-29 03:41:00,
2013-05-28 22:46:00,69.2,59.4,29.74,SSE,153,2.3,2.3,71,0.00,OVC,OVC,0.83,WeatherDisplay:10.37,2013-05-29 03:46:00,
2013-05-28 22:51:00,69.1,59.7,29.74,South,170,3.5,3.5,72,0.00,OVC,OVC,0.83,WeatherDisplay:10.37,2013-05-29 03:51:00,
2013-05-28 22:57:00,69.0,59.6,29.74,SSE,167,4.6,4.6,72,0.00,OVC,OVC,0.83,WeatherDisplay:10.37,2013-05-29 03:57:00,
2013-05-28 23:01:00,69.0,59.6,29.74,South,169,3.5,3.5,72,0.00,OVC,OVC,0.83,WeatherDisplay:10.37,2013-05-29 04:01:00,
2013-05-28 23:02:00,68.9,59.5,29.74,South,169,3.5,3.5,72,0.00,OVC,OVC,0.83,WeatherDisplay:10.37,2013-05-29 04:02:00,
2013-05-28 23:04:00,68.9,59.5,29.74,South,169,2.3,2.3,72,0.00,OVC,OVC,0.83,WeatherDisplay:10.37,2013-05-29 04:04:00,
2013-05-28 23:08:00,68.9,59.5,29.74,SSE,155,2.3,2.3,72,0.00,OVC,OVC,0.83,WeatherDisplay:10.37,2013-05-29 04:08:00,
2013-05-28 23:14:00,68.8,59.4,29.73,SSE,155,2.3,2.3,72,0.00,OVC,OVC,0.83,WeatherDisplay:10.37,2013-05-29 04:14:00,
2013-05-28 23:19:00,68.7,59.3,29.73,SSE,163,6.0,6.0,72,0.00,OVC,OVC,0.83,WeatherDisplay:10.37,2013-05-29 04:19:00,
2013-05-28 23:24:00,68.5,59.1,29.73,SSE,161,1.2,1.2,72,0.00,OVC,OVC,0.83,WeatherDisplay:10.37,2013-05-29 04:24:00,
2013-05-28 23:30:00,68.4,59.0,29.73,SSE,153,4.6,4.6,72,0.00,OVC,OVC,0.83,WeatherDisplay:10.37,2013-05-29 04:30:00,
2013-05-28 23:35:00,68.4,59.0,29.73,SSE,153,3.5,3.5,72,0.00,OVC,OVC,0.83,WeatherDisplay:10.37,2013-05-29 04:35:00,
2013-05-28 23:40:00,68.3,58.9,29.72,SSE,150,3.5,3.5,72,0.00,OVC,OVC,0.83,WeatherDisplay:10.37,2013-05-29 04:40:00,
2013-05-28 23:45:00,68.1,58.7,29.71,SE,142,4.6,4.6,72,0.00,OVC,OVC,0.83,WeatherDisplay:10.37,2013-05-29 04:45:00,
2013-05-28 23:50:00,68.0,58.6,29.72,SSE,159,4.6,4.6,72,0.00,OVC,OVC,0.83,WeatherDisplay:10.37,2013-05-29 04:50:00,
2013-05-28 23:55:00,67.9,58.5,29.72,SSE,158,5.8,5.8,72,0.00,OVC,OVC,0.83,WeatherDisplay:10.37,2013-05-29 04:55:00,